sensor_id;sensor_type;location;lat;lon;timestamp;P1;durP1;ratioP1;P2;durP2;ratioP2
29574;SDS011;16507;51.046;6.406;2023-12-22T00:01:29;0.20;;;0.20;;
29574;SDS011;16507;51.046;6.406;2023-12-22T00:03:54;0.00;;;0.00;;
29574;SDS011;16507;51.046;6.406;2023-12-22T00:06:20;0.00;;;0.00;;
29574;SDS011;16507;51.046;6.406;2023-12-22T00:08:46;0.57;;;0.57;;
29574;SDS011;16507;51.046;6.406;2023-12-22T00:11:11;0.00;;;0.00;;
29574;SDS011;16507;51.046;6.406;2023-12-22T00:13:37;0.00;;;0.00;;
29574;SDS011;16507;51.046;6.406;2023-12-22T00:16:03;0.00;;;0.00;;
29574;SDS011;16507;51.046;6.406;2023-12-22T00:18:29;0.90;;;0.57;;
29574;SDS011;16507;51.046;6.406;2023-12-22T00:20:54;0.28;;;0.28;;
29574;SDS011;16507;51.046;6.406;2023-12-22T00:23:20;0.65;;;0.65;;
29574;SDS011;16507;51.046;6.406;2023-12-22T00:25:45;1.17;;;0.63;;
29574;SDS011;16507;51.046;6.406;2023-12-22T00:28:11;0.45;;;0.45;;
29574;SDS011;16507;51.046;6.406;2023-12-22T00:30:37;2.00;;;1.02;;
29574;SDS011;16507;51.046;6.406;2023-12-22T00:33:02;0.00;;;0.00;;
29574;SDS011;16507;51.046;6.406;2023-12-22T00:35:28;0.08;;;0.08;;
29574;SDS011;16507;51.046;6.406;2023-12-22T00:37:54;0.38;;;0.03;;
29574;SDS011;16507;51.046;6.406;2023-12-22T00:40:19;0.30;;;0.20;;
29574;SDS011;16507;51.046;6.406;2023-12-22T00:42:45;0.32;;;0.30;;
29574;SDS011;16507;51.046;6.406;2023-12-22T00:45:11;0.00;;;0.00;;
29574;SDS011;16507;51.046;6.406;2023-12-22T00:47:36;0.38;;;0.25;;
29574;SDS011;16507;51.046;6.406;2023-12-22T00:50:02;0.28;;;0.28;;
29574;SDS011;16507;51.046;6.406;2023-12-22T00:52:29;0.00;;;0.00;;
29574;SDS011;16507;51.046;6.406;2023-12-22T00:54:56;0.00;;;0.00;;
29574;SDS011;16507;51.046;6.406;2023-12-22T00:57:22;0.47;;;0.47;;
29574;SDS011;16507;51.046;6.406;2023-12-22T00:59:48;0.00;;;0.00;;
29574;SDS011;16507;51.046;6.406;2023-12-22T01:02:14;0.00;;;0.00;;
29574;SDS011;16507;51.046;6.406;2023-12-22T01:04:40;0.00;;;0.00;;
29574;SDS011;16507;51.046;6.406;2023-12-22T01:07:09;4.45;;;0.73;;
29574;SDS011;16507;51.046;6.406;2023-12-22T01:09:35;0.00;;;0.00;;
29574;SDS011;16507;51.046;6.406;2023-12-22T01:12:04;0.05;;;0.05;;
29574;SDS011;16507;51.046;6.406;2023-12-22T01:14:31;0.32;;;0.32;;
29574;SDS011;16507;51.046;6.406;2023-12-22T01:16:56;0.00;;;0.00;;
29574;SDS011;16507;51.046;6.406;2023-12-22T01:19:24;0.00;;;0.00;;
29574;SDS011;16507;51.046;6.406;2023-12-22T01:21:49;2.28;;;1.23;;
29574;SDS011;16507;51.046;6.406;2023-12-22T01:24:15;0.00;;;0.00;;
29574;SDS011;16507;51.046;6.406;2023-12-22T01:26:40;0.70;;;0.28;;
29574;SDS011;16507;51.046;6.406;2023-12-22T01:29:06;6.03;;;0.75;;
29574;SDS011;16507;51.046;6.406;2023-12-22T01:31:32;0.00;;;0.00;;
29574;SDS011;16507;51.046;6.406;2023-12-22T01:33:57;3.63;;;0.68;;
29574;SDS011;16507;51.046;6.406;2023-12-22T01:36:23;0.00;;;0.00;;
29574;SDS011;16507;51.046;6.406;2023-12-22T01:38:48;0.20;;;0.20;;
29574;SDS011;16507;51.046;6.406;2023-12-22T01:41:14;0.00;;;0.00;;
29574;SDS011;16507;51.046;6.406;2023-12-22T01:43:40;0.52;;;0.52;;
29574;SDS011;16507;51.046;6.406;2023-12-22T01:46:05;0.00;;;0.00;;
29574;SDS011;16507;51.046;6.406;2023-12-22T01:48:32;0.00;;;0.00;;
29574;SDS011;16507;51.046;6.406;2023-12-22T01:50:59;6.30;;;0.93;;
29574;SDS011;16507;51.046;6.406;2023-12-22T01:53:26;0.00;;;0.00;;
29574;SDS011;16507;51.046;6.406;2023-12-22T01:55:54;3.72;;;0.52;;
29574;SDS011;16507;51.046;6.406;2023-12-22T01:58:20;0.22;;;0.22;;
29574;SDS011;16507;51.046;6.406;2023-12-22T02:00:48;14.80;;;2.55;;
29574;SDS011;16507;51.046;6.406;2023-12-22T02:03:14;0.38;;;0.38;;
29574;SDS011;16507;51.046;6.406;2023-12-22T02:05:43;0.43;;;0.43;;
29574;SDS011;16507;51.046;6.406;2023-12-22T02:08:09;0.03;;;0.03;;
29574;SDS011;16507;51.046;6.406;2023-12-22T02:10:36;0.40;;;0.40;;
29574;SDS011;16507;51.046;6.406;2023-12-22T02:13:02;2.92;;;0.63;;
29574;SDS011;16507;51.046;6.406;2023-12-22T02:15:29;0.60;;;0.43;;
29574;SDS011;16507;51.046;6.406;2023-12-22T02:17:59;20.55;;;2.83;;
29574;SDS011;16507;51.046;6.406;2023-12-22T02:20:29;17.45;;;2.20;;
29574;SDS011;16507;51.046;6.406;2023-12-22T02:22:56;9.70;;;1.70;;
29574;SDS011;16507;51.046;6.406;2023-12-22T02:25:22;19.63;;;2.08;;
29574;SDS011;16507;51.046;6.406;2023-12-22T02:27:48;22.10;;;2.40;;
29574;SDS011;16507;51.046;6.406;2023-12-22T02:32:59;22.98;;;2.80;;
29574;SDS011;16507;51.046;6.406;2023-12-22T02:35:26;15.07;;;1.92;;
29574;SDS011;16507;51.046;6.406;2023-12-22T02:37:54;13.10;;;2.17;;
29574;SDS011;16507;51.046;6.406;2023-12-22T02:40:22;12.07;;;1.77;;
29574;SDS011;16507;51.046;6.406;2023-12-22T02:42:49;14.75;;;2.13;;
29574;SDS011;16507;51.046;6.406;2023-12-22T02:45:17;16.13;;;2.30;;
29574;SDS011;16507;51.046;6.406;2023-12-22T02:47:44;30.08;;;1.92;;
29574;SDS011;16507;51.046;6.406;2023-12-22T02:50:10;17.83;;;2.47;;
29574;SDS011;16507;51.046;6.406;2023-12-22T02:52:40;22.05;;;2.75;;
29574;SDS011;16507;51.046;6.406;2023-12-22T02:55:06;14.45;;;2.58;;
29574;SDS011;16507;51.046;6.406;2023-12-22T02:57:32;14.07;;;2.33;;
29574;SDS011;16507;51.046;6.406;2023-12-22T02:59:58;22.13;;;2.50;;
29574;SDS011;16507;51.046;6.406;2023-12-22T03:02:24;28.08;;;3.25;;
29574;SDS011;16507;51.046;6.406;2023-12-22T03:04:50;13.68;;;2.03;;
29574;SDS011;16507;51.046;6.406;2023-12-22T03:07:15;12.57;;;1.95;;
29574;SDS011;16507;51.046;6.406;2023-12-22T03:09:41;31.88;;;2.60;;
29574;SDS011;16507;51.046;6.406;2023-12-22T03:12:08;14.75;;;2.30;;
29574;SDS011;16507;51.046;6.406;2023-12-22T03:14:34;20.58;;;2.50;;
29574;SDS011;16507;51.046;6.406;2023-12-22T03:17:00;14.40;;;2.40;;
29574;SDS011;16507;51.046;6.406;2023-12-22T03:19:26;19.95;;;2.70;;
29574;SDS011;16507;51.046;6.406;2023-12-22T03:21:52;13.18;;;1.92;;
29574;SDS011;16507;51.046;6.406;2023-12-22T03:24:18;16.75;;;2.83;;
29574;SDS011;16507;51.046;6.406;2023-12-22T03:26:44;15.63;;;1.70;;
29574;SDS011;16507;51.046;6.406;2023-12-22T03:29:10;11.13;;;1.85;;
29574;SDS011;16507;51.046;6.406;2023-12-22T03:31:36;8.30;;;1.77;;
29574;SDS011;16507;51.046;6.406;2023-12-22T03:34:02;3.53;;;1.15;;
29574;SDS011;16507;51.046;6.406;2023-12-22T03:36:27;14.30;;;1.33;;
29574;SDS011;16507;51.046;6.406;2023-12-22T03:38:53;7.72;;;1.10;;
29574;SDS011;16507;51.046;6.406;2023-12-22T03:41:18;9.32;;;1.77;;
29574;SDS011;16507;51.046;6.406;2023-12-22T03:43:44;12.38;;;1.23;;
29574;SDS011;16507;51.046;6.406;2023-12-22T03:46:10;5.45;;;1.25;;
29574;SDS011;16507;51.046;6.406;2023-12-22T03:48:35;4.78;;;1.23;;
29574;SDS011;16507;51.046;6.406;2023-12-22T03:51:01;11.00;;;1.65;;
29574;SDS011;16507;51.046;6.406;2023-12-22T03:53:27;14.45;;;2.25;;
29574;SDS011;16507;51.046;6.406;2023-12-22T03:55:52;8.38;;;1.73;;
29574;SDS011;16507;51.046;6.406;2023-12-22T03:58:18;4.95;;;1.40;;
29574;SDS011;16507;51.046;6.406;2023-12-22T04:00:43;15.85;;;2.38;;
29574;SDS011;16507;51.046;6.406;2023-12-22T04:03:09;14.07;;;1.98;;
29574;SDS011;16507;51.046;6.406;2023-12-22T04:05:35;8.98;;;1.52;;
29574;SDS011;16507;51.046;6.406;2023-12-22T04:08:00;17.48;;;2.30;;
29574;SDS011;16507;51.046;6.406;2023-12-22T04:10:26;12.45;;;1.65;;
29574;SDS011;16507;51.046;6.406;2023-12-22T04:12:51;11.98;;;1.70;;
29574;SDS011;16507;51.046;6.406;2023-12-22T04:15:17;10.98;;;1.75;;
29574;SDS011;16507;51.046;6.406;2023-12-22T04:17:42;16.17;;;2.38;;
29574;SDS011;16507;51.046;6.406;2023-12-22T04:20:08;14.55;;;2.30;;
29574;SDS011;16507;51.046;6.406;2023-12-22T04:22:34;16.25;;;2.20;;
29574;SDS011;16507;51.046;6.406;2023-12-22T04:24:59;14.95;;;2.47;;
29574;SDS011;16507;51.046;6.406;2023-12-22T04:27:25;13.93;;;1.77;;
29574;SDS011;16507;51.046;6.406;2023-12-22T04:29:51;18.35;;;1.85;;
29574;SDS011;16507;51.046;6.406;2023-12-22T04:32:16;11.82;;;2.25;;
29574;SDS011;16507;51.046;6.406;2023-12-22T04:34:42;14.02;;;1.85;;
29574;SDS011;16507;51.046;6.406;2023-12-22T04:37:07;15.10;;;1.77;;
29574;SDS011;16507;51.046;6.406;2023-12-22T04:39:34;10.77;;;1.90;;
29574;SDS011;16507;51.046;6.406;2023-12-22T04:41:59;10.10;;;1.85;;
29574;SDS011;16507;51.046;6.406;2023-12-22T04:44:25;15.30;;;2.25;;
29574;SDS011;16507;51.046;6.406;2023-12-22T04:46:50;11.77;;;2.38;;
29574;SDS011;16507;51.046;6.406;2023-12-22T04:49:16;16.35;;;1.65;;
29574;SDS011;16507;51.046;6.406;2023-12-22T04:51:42;14.10;;;2.30;;
29574;SDS011;16507;51.046;6.406;2023-12-22T04:54:07;24.48;;;2.50;;
29574;SDS011;16507;51.046;6.406;2023-12-22T04:56:33;13.15;;;2.75;;
29574;SDS011;16507;51.046;6.406;2023-12-22T04:58:58;13.77;;;2.30;;
29574;SDS011;16507;51.046;6.406;2023-12-22T05:01:24;16.48;;;2.42;;
29574;SDS011;16507;51.046;6.406;2023-12-22T05:03:50;18.05;;;2.38;;
29574;SDS011;16507;51.046;6.406;2023-12-22T05:06:15;15.63;;;2.55;;
29574;SDS011;16507;51.046;6.406;2023-12-22T05:08:41;10.38;;;2.08;;
29574;SDS011;16507;51.046;6.406;2023-12-22T05:11:06;17.58;;;2.60;;
29574;SDS011;16507;51.046;6.406;2023-12-22T05:13:32;24.23;;;3.20;;
29574;SDS011;16507;51.046;6.406;2023-12-22T05:15:57;15.23;;;1.88;;
29574;SDS011;16507;51.046;6.406;2023-12-22T05:18:23;15.55;;;1.98;;
29574;SDS011;16507;51.046;6.406;2023-12-22T05:20:49;22.25;;;2.25;;
29574;SDS011;16507;51.046;6.406;2023-12-22T05:23:15;12.25;;;1.70;;
29574;SDS011;16507;51.046;6.406;2023-12-22T05:25:41;12.05;;;1.92;;
29574;SDS011;16507;51.046;6.406;2023-12-22T05:28:06;16.90;;;2.67;;
29574;SDS011;16507;51.046;6.406;2023-12-22T05:30:32;15.02;;;1.92;;
29574;SDS011;16507;51.046;6.406;2023-12-22T05:32:57;18.15;;;1.75;;
29574;SDS011;16507;51.046;6.406;2023-12-22T05:35:23;14.25;;;1.90;;
29574;SDS011;16507;51.046;6.406;2023-12-22T05:37:49;14.45;;;2.00;;
29574;SDS011;16507;51.046;6.406;2023-12-22T05:40:14;19.40;;;2.40;;
29574;SDS011;16507;51.046;6.406;2023-12-22T05:42:40;12.25;;;2.10;;
29574;SDS011;16507;51.046;6.406;2023-12-22T05:45:07;8.85;;;1.70;;
29574;SDS011;16507;51.046;6.406;2023-12-22T05:47:33;13.50;;;2.35;;
29574;SDS011;16507;51.046;6.406;2023-12-22T05:50:02;8.57;;;1.88;;
29574;SDS011;16507;51.046;6.406;2023-12-22T05:52:29;12.88;;;2.13;;
29574;SDS011;16507;51.046;6.406;2023-12-22T05:54:54;8.52;;;2.22;;
29574;SDS011;16507;51.046;6.406;2023-12-22T05:57:20;11.80;;;2.42;;
29574;SDS011;16507;51.046;6.406;2023-12-22T05:59:45;9.25;;;1.95;;
29574;SDS011;16507;51.046;6.406;2023-12-22T06:02:11;12.63;;;2.35;;
29574;SDS011;16507;51.046;6.406;2023-12-22T06:04:38;4.68;;;1.70;;
29574;SDS011;16507;51.046;6.406;2023-12-22T06:07:03;11.18;;;2.10;;
29574;SDS011;16507;51.046;6.406;2023-12-22T06:09:29;11.88;;;2.20;;
29574;SDS011;16507;51.046;6.406;2023-12-22T06:11:55;20.27;;;2.50;;
29574;SDS011;16507;51.046;6.406;2023-12-22T06:14:21;16.17;;;2.60;;
29574;SDS011;16507;51.046;6.406;2023-12-22T06:16:47;15.55;;;3.05;;
29574;SDS011;16507;51.046;6.406;2023-12-22T06:19:13;10.38;;;1.48;;
29574;SDS011;16507;51.046;6.406;2023-12-22T06:21:39;16.35;;;2.25;;
29574;SDS011;16507;51.046;6.406;2023-12-22T06:24:05;12.55;;;1.70;;
29574;SDS011;16507;51.046;6.406;2023-12-22T06:26:31;10.63;;;2.38;;
29574;SDS011;16507;51.046;6.406;2023-12-22T06:28:56;15.40;;;2.08;;
29574;SDS011;16507;51.046;6.406;2023-12-22T06:31:22;13.20;;;1.80;;
29574;SDS011;16507;51.046;6.406;2023-12-22T06:33:48;14.63;;;1.80;;
29574;SDS011;16507;51.046;6.406;2023-12-22T06:36:21;11.10;;;1.98;;
29574;SDS011;16507;51.046;6.406;2023-12-22T06:38:48;16.48;;;2.33;;
29574;SDS011;16507;51.046;6.406;2023-12-22T06:41:21;14.25;;;2.13;;
29574;SDS011;16507;51.046;6.406;2023-12-22T06:43:51;19.20;;;2.00;;
29574;SDS011;16507;51.046;6.406;2023-12-22T06:46:21;17.20;;;2.80;;
29574;SDS011;16507;51.046;6.406;2023-12-22T06:48:48;10.43;;;2.17;;
29574;SDS011;16507;51.046;6.406;2023-12-22T06:51:19;12.65;;;2.70;;
29574;SDS011;16507;51.046;6.406;2023-12-22T06:53:49;17.88;;;2.83;;
29574;SDS011;16507;51.046;6.406;2023-12-22T06:56:22;23.52;;;3.53;;
29574;SDS011;16507;51.046;6.406;2023-12-22T06:58:55;18.77;;;3.10;;
29574;SDS011;16507;51.046;6.406;2023-12-22T07:01:23;24.20;;;3.50;;
29574;SDS011;16507;51.046;6.406;2023-12-22T07:03:50;22.23;;;3.67;;
29574;SDS011;16507;51.046;6.406;2023-12-22T07:06:17;22.55;;;3.20;;
29574;SDS011;16507;51.046;6.406;2023-12-22T07:11:36;24.20;;;3.47;;
29574;SDS011;16507;51.046;6.406;2023-12-22T07:14:02;24.58;;;3.13;;
29574;SDS011;16507;51.046;6.406;2023-12-22T07:16:27;23.17;;;3.42;;
29574;SDS011;16507;51.046;6.406;2023-12-22T07:18:53;18.55;;;3.40;;
29574;SDS011;16507;51.046;6.406;2023-12-22T07:21:18;25.02;;;4.13;;
29574;SDS011;16507;51.046;6.406;2023-12-22T07:23:44;23.50;;;3.92;;
29574;SDS011;16507;51.046;6.406;2023-12-22T07:26:10;26.13;;;4.13;;
29574;SDS011;16507;51.046;6.406;2023-12-22T07:28:36;29.42;;;4.05;;
29574;SDS011;16507;51.046;6.406;2023-12-22T07:31:01;26.65;;;3.72;;
29574;SDS011;16507;51.046;6.406;2023-12-22T07:33:27;28.52;;;3.65;;
29574;SDS011;16507;51.046;6.406;2023-12-22T07:35:53;26.77;;;4.25;;
29574;SDS011;16507;51.046;6.406;2023-12-22T07:38:19;25.15;;;4.22;;
29574;SDS011;16507;51.046;6.406;2023-12-22T07:40:45;31.02;;;4.25;;
29574;SDS011;16507;51.046;6.406;2023-12-22T07:43:10;35.28;;;4.65;;
29574;SDS011;16507;51.046;6.406;2023-12-22T07:45:36;21.95;;;3.67;;
29574;SDS011;16507;51.046;6.406;2023-12-22T07:48:02;30.73;;;4.63;;
29574;SDS011;16507;51.046;6.406;2023-12-22T07:50:28;36.33;;;4.47;;
29574;SDS011;16507;51.046;6.406;2023-12-22T07:52:54;37.42;;;5.63;;
29574;SDS011;16507;51.046;6.406;2023-12-22T07:55:20;40.65;;;4.93;;
29574;SDS011;16507;51.046;6.406;2023-12-22T07:57:45;37.85;;;5.40;;
29574;SDS011;16507;51.046;6.406;2023-12-22T08:00:11;42.10;;;4.53;;
29574;SDS011;16507;51.046;6.406;2023-12-22T08:02:37;35.53;;;5.72;;
29574;SDS011;16507;51.046;6.406;2023-12-22T08:05:03;35.92;;;5.43;;
29574;SDS011;16507;51.046;6.406;2023-12-22T08:07:29;36.72;;;4.57;;
29574;SDS011;16507;51.046;6.406;2023-12-22T08:09:55;40.13;;;4.63;;
29574;SDS011;16507;51.046;6.406;2023-12-22T08:12:22;29.77;;;4.45;;
29574;SDS011;16507;51.046;6.406;2023-12-22T08:14:48;28.38;;;4.97;;
29574;SDS011;16507;51.046;6.406;2023-12-22T08:17:13;28.25;;;3.97;;
29574;SDS011;16507;51.046;6.406;2023-12-22T08:19:39;33.95;;;4.65;;
29574;SDS011;16507;51.046;6.406;2023-12-22T08:22:08;31.45;;;4.20;;
29574;SDS011;16507;51.046;6.406;2023-12-22T08:24:35;30.60;;;4.65;;
29574;SDS011;16507;51.046;6.406;2023-12-22T08:27:00;24.75;;;3.67;;
29574;SDS011;16507;51.046;6.406;2023-12-22T08:29:26;43.53;;;5.80;;
29574;SDS011;16507;51.046;6.406;2023-12-22T08:31:52;38.38;;;5.00;;
29574;SDS011;16507;51.046;6.406;2023-12-22T08:34:18;29.95;;;4.45;;
29574;SDS011;16507;51.046;6.406;2023-12-22T08:36:44;30.60;;;4.47;;
29574;SDS011;16507;51.046;6.406;2023-12-22T08:39:10;39.28;;;4.95;;
29574;SDS011;16507;51.046;6.406;2023-12-22T08:41:35;29.58;;;5.35;;
29574;SDS011;16507;51.046;6.406;2023-12-22T08:44:05;27.95;;;4.22;;
29574;SDS011;16507;51.046;6.406;2023-12-22T08:46:32;41.53;;;4.90;;
29574;SDS011;16507;51.046;6.406;2023-12-22T08:48:57;29.48;;;4.13;;
29574;SDS011;16507;51.046;6.406;2023-12-22T08:51:26;23.20;;;4.18;;
29574;SDS011;16507;51.046;6.406;2023-12-22T08:53:53;24.50;;;4.05;;
29574;SDS011;16507;51.046;6.406;2023-12-22T08:56:20;27.65;;;4.32;;
29574;SDS011;16507;51.046;6.406;2023-12-22T08:58:46;27.42;;;4.45;;
29574;SDS011;16507;51.046;6.406;2023-12-22T09:01:18;31.98;;;4.63;;
29574;SDS011;16507;51.046;6.406;2023-12-22T09:03:44;27.85;;;4.07;;
29574;SDS011;16507;51.046;6.406;2023-12-22T09:06:14;28.13;;;4.07;;
29574;SDS011;16507;51.046;6.406;2023-12-22T09:11:12;21.38;;;3.55;;
29574;SDS011;16507;51.046;6.406;2023-12-22T09:16:08;27.58;;;3.35;;
29574;SDS011;16507;51.046;6.406;2023-12-22T09:18:34;22.80;;;4.38;;
29574;SDS011;16507;51.046;6.406;2023-12-22T09:21:00;20.65;;;3.17;;
29574;SDS011;16507;51.046;6.406;2023-12-22T09:23:28;29.67;;;3.97;;
29574;SDS011;16507;51.046;6.406;2023-12-22T09:25:54;17.45;;;2.88;;
29574;SDS011;16507;51.046;6.406;2023-12-22T09:28:20;15.95;;;2.83;;
29574;SDS011;16507;51.046;6.406;2023-12-22T09:30:46;17.17;;;3.35;;
29574;SDS011;16507;51.046;6.406;2023-12-22T09:33:12;10.25;;;2.63;;
29574;SDS011;16507;51.046;6.406;2023-12-22T09:35:38;12.82;;;2.85;;
29574;SDS011;16507;51.046;6.406;2023-12-22T09:38:06;27.13;;;3.53;;
29574;SDS011;16507;51.046;6.406;2023-12-22T09:40:34;13.25;;;3.08;;
29574;SDS011;16507;51.046;6.406;2023-12-22T09:43:01;11.55;;;2.25;;
29574;SDS011;16507;51.046;6.406;2023-12-22T09:45:27;17.30;;;2.90;;
29574;SDS011;16507;51.046;6.406;2023-12-22T09:47:55;8.10;;;1.90;;
29574;SDS011;16507;51.046;6.406;2023-12-22T09:50:23;9.00;;;1.50;;
29574;SDS011;16507;51.046;6.406;2023-12-22T09:52:49;6.25;;;1.75;;
29574;SDS011;16507;51.046;6.406;2023-12-22T09:55:15;6.20;;;1.60;;
29574;SDS011;16507;51.046;6.406;2023-12-22T09:57:42;9.13;;;1.92;;
29574;SDS011;16507;51.046;6.406;2023-12-22T10:00:09;11.45;;;1.77;;
29574;SDS011;16507;51.046;6.406;2023-12-22T10:02:37;7.30;;;2.08;;
29574;SDS011;16507;51.046;6.406;2023-12-22T10:05:03;8.57;;;2.17;;
29574;SDS011;16507;51.046;6.406;2023-12-22T10:07:30;8.43;;;2.03;;
29574;SDS011;16507;51.046;6.406;2023-12-22T10:09:55;5.35;;;2.00;;
29574;SDS011;16507;51.046;6.406;2023-12-22T10:12:22;6.15;;;2.00;;
29574;SDS011;16507;51.046;6.406;2023-12-22T10:14:49;6.15;;;1.55;;
29574;SDS011;16507;51.046;6.406;2023-12-22T10:17:16;11.43;;;1.60;;
29574;SDS011;16507;51.046;6.406;2023-12-22T10:19:42;3.88;;;1.70;;
29574;SDS011;16507;51.046;6.406;2023-12-22T10:22:08;5.38;;;1.95;;
29574;SDS011;16507;51.046;6.406;2023-12-22T10:24:43;6.93;;;2.35;;
29574;SDS011;16507;51.046;6.406;2023-12-22T10:27:12;5.85;;;2.10;;
29574;SDS011;16507;51.046;6.406;2023-12-22T10:29:39;6.20;;;2.10;;
29574;SDS011;16507;51.046;6.406;2023-12-22T10:32:06;2.85;;;1.63;;
29574;SDS011;16507;51.046;6.406;2023-12-22T10:34:33;4.35;;;1.67;;
29574;SDS011;16507;51.046;6.406;2023-12-22T10:36:59;3.40;;;1.38;;
29574;SDS011;16507;51.046;6.406;2023-12-22T10:39:28;3.80;;;1.80;;
29574;SDS011;16507;51.046;6.406;2023-12-22T10:41:55;4.70;;;1.70;;
29574;SDS011;16507;51.046;6.406;2023-12-22T10:44:25;4.82;;;1.52;;
29574;SDS011;16507;51.046;6.406;2023-12-22T10:46:52;6.57;;;1.67;;
29574;SDS011;16507;51.046;6.406;2023-12-22T10:49:22;2.35;;;1.42;;
29574;SDS011;16507;51.046;6.406;2023-12-22T10:51:48;2.55;;;1.60;;
29574;SDS011;16507;51.046;6.406;2023-12-22T10:54:14;5.32;;;1.30;;
29574;SDS011;16507;51.046;6.406;2023-12-22T10:56:41;3.80;;;1.70;;
29574;SDS011;16507;51.046;6.406;2023-12-22T10:59:08;3.88;;;2.00;;
29574;SDS011;16507;51.046;6.406;2023-12-22T11:01:35;3.88;;;2.00;;
29574;SDS011;16507;51.046;6.406;2023-12-22T11:04:05;3.42;;;1.80;;
29574;SDS011;16507;51.046;6.406;2023-12-22T11:06:35;5.07;;;1.77;;
29574;SDS011;16507;51.046;6.406;2023-12-22T11:09:03;4.25;;;1.48;;
29574;SDS011;16507;51.046;6.406;2023-12-22T11:11:36;4.55;;;1.75;;
29574;SDS011;16507;51.046;6.406;2023-12-22T11:14:03;5.88;;;1.75;;
29574;SDS011;16507;51.046;6.406;2023-12-22T11:16:30;4.68;;;1.40;;
29574;SDS011;16507;51.046;6.406;2023-12-22T11:18:58;2.97;;;1.58;;
29574;SDS011;16507;51.046;6.406;2023-12-22T11:21:25;4.20;;;1.48;;
29574;SDS011;16507;51.046;6.406;2023-12-22T11:23:51;3.10;;;1.63;;
29574;SDS011;16507;51.046;6.406;2023-12-22T11:26:19;7.85;;;1.60;;
29574;SDS011;16507;51.046;6.406;2023-12-22T11:28:46;3.95;;;1.40;;
29574;SDS011;16507;51.046;6.406;2023-12-22T11:31:13;3.78;;;1.40;;
29574;SDS011;16507;51.046;6.406;2023-12-22T11:33:48;1.55;;;1.10;;
29574;SDS011;16507;51.046;6.406;2023-12-22T11:36:15;2.88;;;1.00;;
29574;SDS011;16507;51.046;6.406;2023-12-22T11:38:43;3.97;;;1.20;;
29574;SDS011;16507;51.046;6.406;2023-12-22T11:41:29;3.38;;;0.52;;
29574;SDS011;16507;51.046;6.406;2023-12-22T11:43:57;2.78;;;1.00;;
29574;SDS011;16507;51.046;6.406;2023-12-22T11:46:24;2.30;;;0.90;;
29574;SDS011;16507;51.046;6.406;2023-12-22T11:48:50;2.75;;;1.30;;
29574;SDS011;16507;51.046;6.406;2023-12-22T11:51:17;5.72;;;0.80;;
29574;SDS011;16507;51.046;6.406;2023-12-22T11:53:43;4.85;;;1.25;;
29574;SDS011;16507;51.046;6.406;2023-12-22T11:56:10;7.53;;;1.13;;
29574;SDS011;16507;51.046;6.406;2023-12-22T11:58:44;2.78;;;1.00;;
29574;SDS011;16507;51.046;6.406;2023-12-22T12:01:17;3.08;;;0.90;;
29574;SDS011;16507;51.046;6.406;2023-12-22T12:03:48;3.33;;;0.80;;
29574;SDS011;16507;51.046;6.406;2023-12-22T12:06:31;3.13;;;1.25;;
29574;SDS011;16507;51.046;6.406;2023-12-22T12:08:58;1.50;;;0.90;;
29574;SDS011;16507;51.046;6.406;2023-12-22T12:14:19;2.70;;;1.00;;
29574;SDS011;16507;51.046;6.406;2023-12-22T12:16:50;4.10;;;0.88;;
29574;SDS011;16507;51.046;6.406;2023-12-22T12:19:25;5.68;;;1.10;;
29574;SDS011;16507;51.046;6.406;2023-12-22T12:21:50;2.63;;;1.35;;
29574;SDS011;16507;51.046;6.406;2023-12-22T12:24:16;2.83;;;0.77;;
29574;SDS011;16507;51.046;6.406;2023-12-22T12:26:42;2.72;;;0.90;;
29574;SDS011;16507;51.046;6.406;2023-12-22T12:29:08;6.22;;;0.70;;
29574;SDS011;16507;51.046;6.406;2023-12-22T12:31:37;4.65;;;1.17;;
29574;SDS011;16507;51.046;6.406;2023-12-22T12:34:04;5.75;;;1.02;;
29574;SDS011;16507;51.046;6.406;2023-12-22T12:36:30;3.30;;;0.95;;
29574;SDS011;16507;51.046;6.406;2023-12-22T12:39:15;2.40;;;0.85;;
29574;SDS011;16507;51.046;6.406;2023-12-22T12:41:41;3.97;;;0.88;;
29574;SDS011;16507;51.046;6.406;2023-12-22T12:44:11;3.03;;;0.80;;
29574;SDS011;16507;51.046;6.406;2023-12-22T12:46:37;1.83;;;0.80;;
29574;SDS011;16507;51.046;6.406;2023-12-22T12:49:07;3.80;;;1.00;;
29574;SDS011;16507;51.046;6.406;2023-12-22T12:52:11;2.83;;;0.70;;
29574;SDS011;16507;51.046;6.406;2023-12-22T12:54:26;3.40;;;1.00;;
29574;SDS011;16507;51.046;6.406;2023-12-22T12:56:52;4.13;;;1.00;;
29574;SDS011;16507;51.046;6.406;2023-12-22T12:59:18;3.42;;;1.60;;
29574;SDS011;16507;51.046;6.406;2023-12-22T13:01:45;8.18;;;1.65;;
29574;SDS011;16507;51.046;6.406;2023-12-22T13:04:12;6.18;;;1.30;;
29574;SDS011;16507;51.046;6.406;2023-12-22T13:09:13;3.78;;;1.10;;
29574;SDS011;16507;51.046;6.406;2023-12-22T13:11:39;3.95;;;0.93;;
29574;SDS011;16507;51.046;6.406;2023-12-22T13:14:07;4.63;;;1.00;;
29574;SDS011;16507;51.046;6.406;2023-12-22T13:16:36;6.35;;;0.90;;
29574;SDS011;16507;51.046;6.406;2023-12-22T13:19:03;1.65;;;1.00;;
29574;SDS011;16507;51.046;6.406;2023-12-22T13:21:29;3.80;;;0.98;;
29574;SDS011;16507;51.046;6.406;2023-12-22T13:24:14;6.10;;;1.25;;
29574;SDS011;16507;51.046;6.406;2023-12-22T13:26:41;3.22;;;1.10;;
29574;SDS011;16507;51.046;6.406;2023-12-22T13:29:07;3.33;;;0.90;;
29574;SDS011;16507;51.046;6.406;2023-12-22T13:31:38;6.20;;;1.30;;
29574;SDS011;16507;51.046;6.406;2023-12-22T13:34:13;7.53;;;1.48;;
29574;SDS011;16507;51.046;6.406;2023-12-22T13:36:39;6.53;;;1.27;;
29574;SDS011;16507;51.046;6.406;2023-12-22T13:39:07;6.40;;;1.30;;
29574;SDS011;16507;51.046;6.406;2023-12-22T13:41:34;4.13;;;1.45;;
29574;SDS011;16507;51.046;6.406;2023-12-22T13:44:05;10.13;;;1.63;;
29574;SDS011;16507;51.046;6.406;2023-12-22T13:46:31;8.02;;;1.60;;
29574;SDS011;16507;51.046;6.406;2023-12-22T13:49:00;4.95;;;1.00;;
29574;SDS011;16507;51.046;6.406;2023-12-22T13:51:38;3.97;;;0.85;;
29574;SDS011;16507;51.046;6.406;2023-12-22T13:54:04;3.33;;;1.27;;
29574;SDS011;16507;51.046;6.406;2023-12-22T13:56:33;3.80;;;1.02;;
29574;SDS011;16507;51.046;6.406;2023-12-22T13:59:00;6.95;;;1.05;;
29574;SDS011;16507;51.046;6.406;2023-12-22T14:01:26;3.38;;;1.00;;
29574;SDS011;16507;51.046;6.406;2023-12-22T14:03:52;3.45;;;0.88;;
29574;SDS011;16507;51.046;6.406;2023-12-22T14:06:18;2.72;;;1.05;;
29574;SDS011;16507;51.046;6.406;2023-12-22T14:08:44;5.43;;;0.85;;
29574;SDS011;16507;51.046;6.406;2023-12-22T14:11:10;6.47;;;0.90;;
29574;SDS011;16507;51.046;6.406;2023-12-22T14:13:36;4.43;;;0.70;;
29574;SDS011;16507;51.046;6.406;2023-12-22T14:16:08;6.40;;;1.35;;
29574;SDS011;16507;51.046;6.406;2023-12-22T14:18:33;3.13;;;0.82;;
29574;SDS011;16507;51.046;6.406;2023-12-22T14:21:00;5.85;;;0.85;;
29574;SDS011;16507;51.046;6.406;2023-12-22T14:23:25;4.18;;;0.68;;
29574;SDS011;16507;51.046;6.406;2023-12-22T14:25:51;4.82;;;0.93;;
29574;SDS011;16507;51.046;6.406;2023-12-22T14:28:16;3.65;;;0.68;;
29574;SDS011;16507;51.046;6.406;2023-12-22T14:30:42;4.07;;;0.70;;
29574;SDS011;16507;51.046;6.406;2023-12-22T14:33:08;3.95;;;0.90;;
29574;SDS011;16507;51.046;6.406;2023-12-22T14:35:34;3.63;;;0.70;;
29574;SDS011;16507;51.046;6.406;2023-12-22T14:38:00;4.47;;;0.75;;
29574;SDS011;16507;51.046;6.406;2023-12-22T14:40:26;4.22;;;0.70;;
29574;SDS011;16507;51.046;6.406;2023-12-22T14:42:51;6.70;;;1.10;;
29574;SDS011;16507;51.046;6.406;2023-12-22T14:45:17;4.47;;;0.95;;
29574;SDS011;16507;51.046;6.406;2023-12-22T14:47:43;7.05;;;1.30;;
29574;SDS011;16507;51.046;6.406;2023-12-22T14:50:09;4.88;;;0.82;;
29574;SDS011;16507;51.046;6.406;2023-12-22T14:52:35;8.25;;;1.23;;
29574;SDS011;16507;51.046;6.406;2023-12-22T14:55:00;7.68;;;1.40;;